LiveATC.Net - Listen to live air traffic control over the Internet!


ICAO: KWVI  IATA: WVI   Airport: Watsonville Municipal Airport
City: Watsonville   State/Province: California
Country: United States   Continent: North America
KWVI METAR Weather: KWVI 261253Z AUTO 00000KT 10SM CLR 13/12 A2987 RMK AO2 SLP114 T01330117
KWVI Flight Activity (FlightAware)
KWVI Airport Info   (iFlightPlanner)
KWVI VFR Sectional Chart   (iFlightPlanner) 
KWVI IFR Low Chart   (iFlightPlanner) 

KWVI CTAF/NORCAL App
Feed Status: UP   Listeners: 0
Listen in your browser - HTML5 player (in browser, HTML5)
Click here to listen with your own player (launches your MP3 player)
Archive Access: KWVI CTAF/NORCAL App
FacilityFrequency
KWVI CTAF122.800
NORCAL Approach (Watsonville)127.150
Feed sponsored by: Watsonville Municipal Airport

NOTICE

Unauthorized use prohibited. See LiveATC.net Terms of Service


Airport/ARTCC Code
Frequency Search
(e.g., 124.400, 128.75)
Site-wide search
 


Browse Feeds
Top 50 Feeds
Coverage Map
Bad Weather Areas

LiveATC FAQ
Offer LiveATC feed
Contact LiveATC.net
Press Inquiries

LiveATC on iPhone
LiveATC on Android

Windows Phone
Windows 8/10

LiveATC Mobile
(Mobile browser)

ATC Audio Archives
Interesting Recordings

LiveATC Forums


Home Page
About LiveATC.net
Make a Donation
Terms of Use
Privacy Policy

Canadian Air Freqs

AIRMETs/SIGMETs

FAA Airport Status
Nat'l Airspace Status
Arrival Demand Charts


Server Software By:
Icecast.org
Liquidsoap